N7460B KHPN-KMVY
Flight info
| Callsign | N7460B |
|---|---|
| Flight time | 1h 4m |
| Altitude | 11000 |
| Route | BAYYS SEALL V188 GON V374 MVY |
| Aircraft | C208/L-SDFGR/C |
Departure
| Time | 2026-05-04 00:00 |
|---|---|
| Airport | Westchester County Airport (KHPN) |
Arrival
| Time | 2026-05-04 01:04 |
|---|---|
| Airport | Martha's Vineyard Airport (KMVY) |
| Time | Latitude | Longitude | Altitude | Speed | Heading |
|---|---|---|---|---|---|
| 2026-05-03 23:06 | 41.06355 | -73.70930 | 409 ft | 0 kts | 194° |
| 2026-05-03 23:40 | 41.06355 | -73.70931 | 419 ft | 0 kts | 195° |
| 2026-05-03 23:40 | 41.06351 | -73.70956 | 419 ft | 8 kts | 272° |
| 2026-05-03 23:41 | 41.06392 | -73.71040 | 419 ft | 15 kts | 347° |
| 2026-05-03 23:41 | 41.06438 | -73.71033 | 419 ft | 6 kts | 21° |
| 2026-05-03 23:41 | 41.06465 | -73.70945 | 419 ft | 19 kts | 100° |
| 2026-05-03 23:41 | 41.06417 | -73.70720 | 419 ft | 32 kts | 132° |
| 2026-05-03 23:42 | 41.06234 | -73.70571 | 419 ft | 25 kts | 149° |
| 2026-05-03 23:42 | 41.06108 | -73.70473 | 414 ft | 22 kts | 151° |
| 2026-05-03 23:42 | 41.05967 | -73.70366 | 419 ft | 23 kts | 146° |
| 2026-05-03 23:42 | 41.05938 | -73.70316 | 419 ft | 0 kts | 81° |
| 2026-05-03 23:56 | 41.05957 | -73.70259 | 414 ft | 15 kts | 58° |
| 2026-05-03 23:56 | 41.05966 | -73.70240 | 418 ft | 0 kts | 58° |
| 2026-05-03 23:58 | 41.05974 | -73.70222 | 414 ft | 9 kts | 57° |
| 2026-05-03 23:58 | 41.06066 | -73.70194 | 416 ft | 22 kts | 335° |
| 2026-05-03 23:58 | 41.06101 | -73.70217 | 417 ft | 0 kts | 333° |
| 2026-05-03 23:59 | 41.06171 | -73.70273 | 417 ft | 39 kts | 330° |
| 2026-05-03 23:59 | 41.06564 | -73.70559 | 464 ft | 83 kts | 328° |
| 2026-05-04 00:00 | 41.07113 | -73.70938 | 678 ft | 93 kts | 327° |
| 2026-05-04 00:00 | 41.07715 | -73.71276 | 988 ft | 94 kts | 334° |
| 2026-05-04 00:00 | 41.08375 | -73.71643 | 1254 ft | 101 kts | 323° |
| 2026-05-04 00:00 | 41.08814 | -73.72297 | 1629 ft | 101 kts | 300° |
| 2026-05-04 00:01 | 41.09137 | -73.73096 | 2063 ft | 96 kts | 294° |
| 2026-05-04 00:01 | 41.09396 | -73.73929 | 2420 ft | 98 kts | 291° |
| 2026-05-04 00:01 | 41.09662 | -73.74748 | 2841 ft | 95 kts | 295° |
| 2026-05-04 00:01 | 41.10119 | -73.75406 | 3120 ft | 108 kts | 326° |
| 2026-05-04 00:02 | 41.10963 | -73.75433 | 3175 ft | 138 kts | 7° |
| 2026-05-04 00:02 | 41.11824 | -73.74818 | 3415 ft | 145 kts | 28° |
| 2026-05-04 00:02 | 41.12475 | -73.73711 | 3576 ft | 164 kts | 59° |
| 2026-05-04 00:02 | 41.12776 | -73.72219 | 3740 ft | 173 kts | 72° |
| 2026-05-04 00:03 | 41.13060 | -73.70672 | 3918 ft | 171 kts | 66° |
| 2026-05-04 00:03 | 41.13373 | -73.69186 | 4304 ft | 160 kts | 69° |
| 2026-05-04 00:03 | 41.13687 | -73.67816 | 4574 ft | 162 kts | 60° |
| 2026-05-04 00:03 | 41.14100 | -73.66441 | 4897 ft | 157 kts | 58° |
| 2026-05-04 00:04 | 41.14518 | -73.65100 | 5199 ft | 157 kts | 61° |
| 2026-05-04 00:04 | 41.14833 | -73.63688 | 5467 ft | 161 kts | 65° |
| 2026-05-04 00:04 | 41.15135 | -73.62275 | 5737 ft | 161 kts | 64° |
| 2026-05-04 00:04 | 41.15432 | -73.60853 | 6029 ft | 160 kts | 64° |
| 2026-05-04 00:05 | 41.15714 | -73.59437 | 6326 ft | 158 kts | 64° |
| 2026-05-04 00:05 | 41.15983 | -73.58032 | 6636 ft | 156 kts | 64° |
| 2026-05-04 00:05 | 41.16239 | -73.56644 | 6954 ft | 154 kts | 64° |
| 2026-05-04 00:05 | 41.16479 | -73.55268 | 7273 ft | 151 kts | 64° |
| 2026-05-04 00:06 | 41.16703 | -73.53908 | 7594 ft | 150 kts | 64° |
| 2026-05-04 00:06 | 41.16916 | -73.52547 | 7928 ft | 150 kts | 64° |
| 2026-05-04 00:06 | 41.17120 | -73.51195 | 8255 ft | 149 kts | 64° |
| 2026-05-04 00:06 | 41.17311 | -73.49872 | 8589 ft | 148 kts | 64° |
| 2026-05-04 00:07 | 41.17483 | -73.48530 | 8929 ft | 146 kts | 64° |
| 2026-05-04 00:07 | 41.17645 | -73.47199 | 9277 ft | 146 kts | 64° |
| 2026-05-04 00:07 | 41.17798 | -73.45869 | 9622 ft | 145 kts | 64° |
| 2026-05-04 00:07 | 41.17941 | -73.44551 | 9953 ft | 144 kts | 65° |
| 2026-05-04 00:08 | 41.18079 | -73.43242 | 10268 ft | 142 kts | 64° |
| 2026-05-04 00:08 | 41.18218 | -73.41967 | 10580 ft | 140 kts | 64° |
| 2026-05-04 00:08 | 41.18356 | -73.40693 | 10899 ft | 139 kts | 64° |
| 2026-05-04 00:08 | 41.18513 | -73.39373 | 11017 ft | 155 kts | 65° |
| 2026-05-04 00:09 | 41.18728 | -73.37888 | 11022 ft | 172 kts | 65° |
| 2026-05-04 00:09 | 41.18986 | -73.36274 | 11022 ft | 184 kts | 65° |
| 2026-05-04 00:09 | 41.19273 | -73.34581 | 11019 ft | 191 kts | 65° |
| 2026-05-04 00:09 | 41.19578 | -73.32844 | 11022 ft | 195 kts | 65° |
| 2026-05-04 00:10 | 41.19892 | -73.31085 | 11022 ft | 197 kts | 65° |
| 2026-05-04 00:10 | 41.20133 | -73.29277 | 11020 ft | 206 kts | 80° |
| 2026-05-04 00:10 | 41.20081 | -73.27355 | 11026 ft | 207 kts | 80° |
| 2026-05-04 00:10 | 41.20339 | -73.25548 | 11028 ft | 193 kts | 57° |
| 2026-05-04 00:11 | 41.20876 | -73.23931 | 11025 ft | 191 kts | 52° |
| 2026-05-04 00:11 | 41.21407 | -73.22301 | 11029 ft | 193 kts | 55° |
| 2026-05-04 00:11 | 41.21907 | -73.20638 | 11024 ft | 194 kts | 56° |
| 2026-05-04 00:11 | 41.22397 | -73.18990 | 11026 ft | 194 kts | 56° |
| 2026-05-04 00:12 | 41.22897 | -73.17326 | 11024 ft | 194 kts | 56° |
| 2026-05-04 00:12 | 41.23395 | -73.15665 | 11024 ft | 193 kts | 56° |
| 2026-05-04 00:12 | 41.23893 | -73.14003 | 11027 ft | 193 kts | 56° |
| 2026-05-04 00:12 | 41.24391 | -73.12340 | 11025 ft | 194 kts | 56° |
| 2026-05-04 00:13 | 41.24889 | -73.10677 | 11025 ft | 194 kts | 55° |
| 2026-05-04 00:13 | 41.25387 | -73.09011 | 11028 ft | 193 kts | 56° |
| 2026-05-04 00:13 | 41.25884 | -73.07352 | 11024 ft | 194 kts | 56° |
| 2026-05-04 00:13 | 41.26384 | -73.05679 | 11026 ft | 194 kts | 56° |
| 2026-05-04 00:14 | 41.26875 | -73.04031 | 11024 ft | 194 kts | 56° |
| 2026-05-04 00:14 | 41.27374 | -73.02362 | 11026 ft | 194 kts | 55° |
| 2026-05-04 00:14 | 41.27872 | -73.00691 | 11025 ft | 194 kts | 56° |
| 2026-05-04 00:14 | 41.28368 | -72.99023 | 11025 ft | 194 kts | 55° |
| 2026-05-04 00:15 | 41.28899 | -72.97386 | 11024 ft | 187 kts | 46° |
| 2026-05-04 00:15 | 41.29726 | -72.96173 | 11024 ft | 172 kts | 26° |
| 2026-05-04 00:15 | 41.30630 | -72.95117 | 11024 ft | 174 kts | 27° |
| 2026-05-04 00:15 | 41.31526 | -72.94035 | 11028 ft | 174 kts | 28° |
| 2026-05-04 00:16 | 41.32424 | -72.92959 | 11027 ft | 174 kts | 27° |
| 2026-05-04 00:16 | 41.33325 | -72.91879 | 11023 ft | 174 kts | 27° |
| 2026-05-04 00:16 | 41.34207 | -72.90819 | 11024 ft | 172 kts | 27° |
| 2026-05-04 00:16 | 41.35107 | -72.89742 | 11023 ft | 171 kts | 27° |
| 2026-05-04 00:17 | 41.35978 | -72.88699 | 11016 ft | 170 kts | 27° |
| 2026-05-04 00:17 | 41.36853 | -72.87650 | 11021 ft | 170 kts | 27° |
| 2026-05-04 00:17 | 41.37731 | -72.86598 | 11020 ft | 170 kts | 27° |
| 2026-05-04 00:17 | 41.38597 | -72.85514 | 11017 ft | 176 kts | 34° |
| 2026-05-04 00:18 | 41.39139 | -72.83948 | 11000 ft | 199 kts | 68° |
| 2026-05-04 00:18 | 41.39105 | -72.82043 | 11004 ft | 209 kts | 89° |
| 2026-05-04 00:18 | 41.38932 | -72.80127 | 11009 ft | 209 kts | 88° |
| 2026-05-04 00:18 | 41.38782 | -72.78207 | 11011 ft | 208 kts | 87° |
| 2026-05-04 00:19 | 41.38643 | -72.76287 | 11011 ft | 208 kts | 87° |
| 2026-05-04 00:19 | 41.38497 | -72.74370 | 11012 ft | 208 kts | 88° |
| 2026-05-04 00:19 | 41.38349 | -72.72447 | 11011 ft | 209 kts | 88° |
| 2026-05-04 00:19 | 41.38205 | -72.70549 | 11018 ft | 208 kts | 87° |
| 2026-05-04 00:20 | 41.38059 | -72.68627 | 11021 ft | 209 kts | 88° |
| 2026-05-04 00:20 | 41.37912 | -72.66699 | 11020 ft | 209 kts | 88° |
| 2026-05-04 00:20 | 41.37766 | -72.64768 | 11025 ft | 210 kts | 88° |
| 2026-05-04 00:20 | 41.37617 | -72.62836 | 11027 ft | 210 kts | 88° |
| 2026-05-04 00:21 | 41.37467 | -72.60901 | 11023 ft | 210 kts | 88° |
| 2026-05-04 00:21 | 41.37319 | -72.58971 | 11028 ft | 210 kts | 88° |
| 2026-05-04 00:21 | 41.37172 | -72.57041 | 11029 ft | 210 kts | 88° |
| 2026-05-04 00:21 | 41.37021 | -72.55111 | 11015 ft | 209 kts | 88° |
| 2026-05-04 00:22 | 41.36871 | -72.53188 | 11026 ft | 209 kts | 88° |
| 2026-05-04 00:22 | 41.36722 | -72.51261 | 11027 ft | 209 kts | 88° |
| 2026-05-04 00:22 | 41.36572 | -72.49341 | 11027 ft | 209 kts | 88° |
| 2026-05-04 00:22 | 41.36423 | -72.47417 | 11027 ft | 208 kts | 88° |
| 2026-05-04 00:23 | 41.36274 | -72.45522 | 11019 ft | 209 kts | 88° |
| 2026-05-04 00:23 | 41.36124 | -72.43600 | 11030 ft | 209 kts | 88° |
| 2026-05-04 00:23 | 41.35973 | -72.41672 | 11027 ft | 210 kts | 88° |
| 2026-05-04 00:23 | 41.35821 | -72.39739 | 11026 ft | 210 kts | 88° |
| 2026-05-04 00:24 | 41.35668 | -72.37807 | 11022 ft | 210 kts | 88° |
| 2026-05-04 00:24 | 41.35515 | -72.35877 | 11027 ft | 210 kts | 88° |
| 2026-05-04 00:24 | 41.35414 | -72.34595 | 11021 ft | 210 kts | 88° |
| 2026-05-04 00:24 | 41.35260 | -72.32659 | 11023 ft | 210 kts | 88° |
| 2026-05-04 00:25 | 41.35107 | -72.30733 | 11017 ft | 209 kts | 88° |
| 2026-05-04 00:25 | 41.34953 | -72.28805 | 11020 ft | 209 kts | 88° |
| 2026-05-04 00:25 | 41.34800 | -72.26875 | 11014 ft | 210 kts | 88° |
| 2026-05-04 00:25 | 41.34645 | -72.24947 | 11005 ft | 210 kts | 88° |
| 2026-05-04 00:26 | 41.34490 | -72.23014 | 11014 ft | 210 kts | 88° |
| 2026-05-04 00:26 | 41.34336 | -72.21088 | 11015 ft | 210 kts | 88° |
| 2026-05-04 00:26 | 41.34180 | -72.19156 | 11017 ft | 210 kts | 88° |
| 2026-05-04 00:26 | 41.34024 | -72.17222 | 11019 ft | 210 kts | 88° |
| 2026-05-04 00:27 | 41.33868 | -72.15292 | 11013 ft | 210 kts | 88° |
| 2026-05-04 00:27 | 41.33714 | -72.13381 | 11018 ft | 211 kts | 88° |
| 2026-05-04 00:27 | 41.33555 | -72.11442 | 11018 ft | 210 kts | 88° |
| 2026-05-04 00:27 | 41.33398 | -72.09507 | 11019 ft | 210 kts | 88° |
| 2026-05-04 00:28 | 41.33239 | -72.07566 | 11020 ft | 210 kts | 88° |
| 2026-05-04 00:28 | 41.33083 | -72.05629 | 11016 ft | 210 kts | 88° |
| 2026-05-04 00:28 | 41.33110 | -72.03726 | 11015 ft | 204 kts | 75° |
| 2026-05-04 00:28 | 41.33224 | -72.01869 | 11017 ft | 204 kts | 76° |
| 2026-05-04 00:29 | 41.33320 | -71.99985 | 11016 ft | 204 kts | 76° |
| 2026-05-04 00:29 | 41.33414 | -71.98099 | 11016 ft | 204 kts | 76° |
| 2026-05-04 00:29 | 41.33510 | -71.96216 | 11010 ft | 204 kts | 76° |
| 2026-05-04 00:29 | 41.33607 | -71.94330 | 11019 ft | 204 kts | 76° |
| 2026-05-04 00:30 | 41.33704 | -71.92444 | 11019 ft | 205 kts | 76° |
| 2026-05-04 00:30 | 41.33800 | -71.90554 | 11013 ft | 205 kts | 76° |
| 2026-05-04 00:30 | 41.33895 | -71.88661 | 11018 ft | 205 kts | 76° |
| 2026-05-04 00:30 | 41.33991 | -71.86769 | 11018 ft | 205 kts | 76° |
| 2026-05-04 00:31 | 41.34086 | -71.84879 | 11014 ft | 205 kts | 76° |
| 2026-05-04 00:31 | 41.34181 | -71.82988 | 11018 ft | 205 kts | 76° |
| 2026-05-04 00:31 | 41.34275 | -71.81095 | 11016 ft | 205 kts | 76° |
| 2026-05-04 00:31 | 41.34370 | -71.79200 | 11017 ft | 205 kts | 76° |
| 2026-05-04 00:32 | 41.34463 | -71.77306 | 11016 ft | 205 kts | 76° |
| 2026-05-04 00:32 | 41.34556 | -71.75437 | 11017 ft | 205 kts | 77° |
| 2026-05-04 00:32 | 41.34649 | -71.73544 | 11019 ft | 205 kts | 77° |
| 2026-05-04 00:32 | 41.34741 | -71.71654 | 11020 ft | 204 kts | 77° |
| 2026-05-04 00:33 | 41.34834 | -71.69763 | 11018 ft | 204 kts | 77° |
| 2026-05-04 00:33 | 41.35018 | -71.65991 | 11016 ft | 204 kts | 77° |
| 2026-05-04 00:33 | 41.35109 | -71.64107 | 11014 ft | 204 kts | 77° |
| 2026-05-04 00:34 | 41.35200 | -71.62221 | 11014 ft | 204 kts | 77° |
| 2026-05-04 00:34 | 41.35291 | -71.60332 | 11015 ft | 204 kts | 77° |
| 2026-05-04 00:34 | 41.35382 | -71.58439 | 11009 ft | 204 kts | 77° |
| 2026-05-04 00:34 | 41.35472 | -71.56548 | 11011 ft | 205 kts | 77° |
| 2026-05-04 00:35 | 41.35561 | -71.54683 | 11023 ft | 204 kts | 77° |
| 2026-05-04 00:35 | 41.35650 | -71.52795 | 11023 ft | 204 kts | 77° |
| 2026-05-04 00:35 | 41.35739 | -71.50909 | 11023 ft | 204 kts | 77° |
| 2026-05-04 00:35 | 41.35828 | -71.49026 | 11015 ft | 204 kts | 77° |
| 2026-05-04 00:36 | 41.35917 | -71.47143 | 11021 ft | 204 kts | 77° |
| 2026-05-04 00:36 | 41.36005 | -71.45254 | 11018 ft | 204 kts | 77° |
| 2026-05-04 00:36 | 41.36093 | -71.43372 | 11021 ft | 204 kts | 77° |
| 2026-05-04 00:36 | 41.36180 | -71.41484 | 11017 ft | 204 kts | 77° |
| 2026-05-04 00:37 | 41.36268 | -71.39601 | 11002 ft | 204 kts | 77° |
| 2026-05-04 00:37 | 41.36355 | -71.37722 | 11004 ft | 204 kts | 77° |
| 2026-05-04 00:37 | 41.36441 | -71.35866 | 11002 ft | 204 kts | 77° |
| 2026-05-04 00:37 | 41.36527 | -71.33985 | 11002 ft | 203 kts | 77° |
| 2026-05-04 00:38 | 41.36613 | -71.32108 | 11001 ft | 203 kts | 77° |
| 2026-05-04 00:38 | 41.36699 | -71.30225 | 11004 ft | 203 kts | 77° |
| 2026-05-04 00:38 | 41.36785 | -71.28341 | 11002 ft | 203 kts | 77° |
| 2026-05-04 00:38 | 41.36870 | -71.26464 | 11003 ft | 203 kts | 77° |
| 2026-05-04 00:39 | 41.36954 | -71.24604 | 11002 ft | 203 kts | 77° |
| 2026-05-04 00:39 | 41.37038 | -71.22732 | 10999 ft | 203 kts | 77° |
| 2026-05-04 00:39 | 41.37123 | -71.20857 | 11002 ft | 203 kts | 78° |
| 2026-05-04 00:39 | 41.37206 | -71.18985 | 11002 ft | 202 kts | 78° |
| 2026-05-04 00:40 | 41.37290 | -71.17114 | 11000 ft | 202 kts | 78° |
| 2026-05-04 00:40 | 41.37373 | -71.15238 | 11000 ft | 203 kts | 78° |
| 2026-05-04 00:40 | 41.37455 | -71.13363 | 11001 ft | 203 kts | 78° |
| 2026-05-04 00:40 | 41.37541 | -71.11471 | 10904 ft | 208 kts | 78° |
| 2026-05-04 00:41 | 41.37626 | -71.09529 | 10780 ft | 211 kts | 78° |
| 2026-05-04 00:41 | 41.37710 | -71.07570 | 10657 ft | 213 kts | 78° |
| 2026-05-04 00:41 | 41.37796 | -71.05608 | 10441 ft | 218 kts | 78° |
| 2026-05-04 00:41 | 41.37884 | -71.03577 | 10198 ft | 220 kts | 78° |
| 2026-05-04 00:42 | 41.37969 | -71.01552 | 9953 ft | 218 kts | 78° |
| 2026-05-04 00:42 | 41.38054 | -70.99549 | 9703 ft | 216 kts | 78° |
| 2026-05-04 00:42 | 41.38140 | -70.97548 | 9427 ft | 214 kts | 78° |
| 2026-05-04 00:42 | 41.38226 | -70.95569 | 9136 ft | 214 kts | 78° |
| 2026-05-04 00:43 | 41.38311 | -70.93584 | 8814 ft | 215 kts | 78° |
| 2026-05-04 00:43 | 41.38395 | -70.91591 | 8494 ft | 216 kts | 79° |
| 2026-05-04 00:43 | 41.38478 | -70.89596 | 8178 ft | 215 kts | 79° |
| 2026-05-04 00:43 | 41.38562 | -70.87605 | 7868 ft | 215 kts | 79° |
| 2026-05-04 00:44 | 41.38644 | -70.85623 | 7557 ft | 214 kts | 79° |
| 2026-05-04 00:44 | 41.38726 | -70.83647 | 7253 ft | 213 kts | 79° |
| 2026-05-04 00:44 | 41.38808 | -70.81674 | 6942 ft | 213 kts | 79° |
| 2026-05-04 00:44 | 41.38892 | -70.79703 | 6648 ft | 213 kts | 78° |
| 2026-05-04 00:45 | 41.38993 | -70.77763 | 6352 ft | 212 kts | 78° |
| 2026-05-04 00:45 | 41.39079 | -70.75796 | 6041 ft | 212 kts | 80° |
| 2026-05-04 00:45 | 41.39152 | -70.73837 | 5725 ft | 211 kts | 80° |
| 2026-05-04 00:45 | 41.39226 | -70.71887 | 5411 ft | 210 kts | 80° |
| 2026-05-04 00:46 | 41.39301 | -70.69961 | 5104 ft | 209 kts | 81° |
| 2026-05-04 00:46 | 41.39376 | -70.68035 | 4796 ft | 207 kts | 81° |
| 2026-05-04 00:46 | 41.39450 | -70.66132 | 4479 ft | 205 kts | 82° |
| 2026-05-04 00:46 | 41.39521 | -70.64241 | 4165 ft | 204 kts | 81° |
| 2026-05-04 00:47 | 41.39654 | -70.62372 | 3849 ft | 199 kts | 70° |
| 2026-05-04 00:47 | 41.40225 | -70.60751 | 3538 ft | 190 kts | 47° |
| 2026-05-04 00:47 | 41.41126 | -70.59520 | 3230 ft | 183 kts | 32° |
| 2026-05-04 00:47 | 41.42095 | -70.58412 | 2919 ft | 184 kts | 34° |
| 2026-05-04 00:48 | 41.43050 | -70.57285 | 2608 ft | 184 kts | 34° |
| 2026-05-04 00:48 | 41.43990 | -70.56170 | 2299 ft | 173 kts | 34° |
| 2026-05-04 00:48 | 41.44843 | -70.55147 | 1971 ft | 158 kts | 33° |
| 2026-05-04 00:48 | 41.45630 | -70.54220 | 1703 ft | 145 kts | 32° |
| 2026-05-04 00:49 | 41.46325 | -70.53402 | 1687 ft | 123 kts | 30° |
| 2026-05-04 00:49 | 41.46943 | -70.52690 | 1687 ft | 113 kts | 29° |
| 2026-05-04 00:49 | 41.47536 | -70.52010 | 1692 ft | 112 kts | 28° |
| 2026-05-04 00:49 | 41.48129 | -70.51322 | 1686 ft | 114 kts | 29° |
| 2026-05-04 00:50 | 41.48735 | -70.50614 | 1690 ft | 117 kts | 30° |
| 2026-05-04 00:50 | 41.49352 | -70.49889 | 1691 ft | 119 kts | 30° |
| 2026-05-04 00:50 | 41.49977 | -70.49153 | 1693 ft | 120 kts | 30° |
| 2026-05-04 00:50 | 41.50607 | -70.48412 | 1697 ft | 120 kts | 30° |
| 2026-05-04 00:51 | 41.51236 | -70.47672 | 1721 ft | 120 kts | 30° |
| 2026-05-04 00:51 | 41.51863 | -70.46933 | 1718 ft | 121 kts | 30° |
| 2026-05-04 00:51 | 41.52495 | -70.46191 | 1722 ft | 121 kts | 31° |
| 2026-05-04 00:51 | 41.53130 | -70.45443 | 1724 ft | 121 kts | 31° |
| 2026-05-04 00:52 | 41.53742 | -70.44669 | 1721 ft | 120 kts | 31° |
| 2026-05-04 00:52 | 41.54371 | -70.43940 | 1717 ft | 120 kts | 30° |
| 2026-05-04 00:52 | 41.54996 | -70.43200 | 1718 ft | 121 kts | 30° |
| 2026-05-04 00:52 | 41.55606 | -70.42465 | 1725 ft | 117 kts | 33° |
| 2026-05-04 00:53 | 41.55937 | -70.41465 | 1710 ft | 125 kts | 85° |
| 2026-05-04 00:53 | 41.55648 | -70.40402 | 1704 ft | 123 kts | 135° |
| 2026-05-04 00:53 | 41.54947 | -70.39901 | 1705 ft | 110 kts | 182° |
| 2026-05-04 00:53 | 41.54251 | -70.40060 | 1704 ft | 97 kts | 219° |
| 2026-05-04 00:54 | 41.53795 | -70.40638 | 1707 ft | 87 kts | 250° |
| 2026-05-04 00:54 | 41.53634 | -70.41379 | 1710 ft | 82 kts | 273° |
| 2026-05-04 00:54 | 41.53614 | -70.42137 | 1713 ft | 81 kts | 271° |
| 2026-05-04 00:54 | 41.53584 | -70.42883 | 1710 ft | 80 kts | 271° |
| 2026-05-04 00:55 | 41.53555 | -70.43620 | 1712 ft | 79 kts | 271° |
| 2026-05-04 00:55 | 41.53526 | -70.44348 | 1714 ft | 80 kts | 272° |
| 2026-05-04 00:55 | 41.53362 | -70.45075 | 1712 ft | 87 kts | 246° |
| 2026-05-04 00:55 | 41.52903 | -70.45662 | 1712 ft | 94 kts | 230° |
| 2026-05-04 00:56 | 41.52399 | -70.46239 | 1633 ft | 95 kts | 232° |
| 2026-05-04 00:56 | 41.51909 | -70.46796 | 1529 ft | 90 kts | 232° |
| 2026-05-04 00:56 | 41.51452 | -70.47313 | 1515 ft | 83 kts | 233° |
| 2026-05-04 00:56 | 41.51018 | -70.47805 | 1510 ft | 81 kts | 233° |
| 2026-05-04 00:57 | 41.50594 | -70.48290 | 1486 ft | 79 kts | 234° |
| 2026-05-04 00:57 | 41.50173 | -70.48772 | 1484 ft | 80 kts | 233° |
| 2026-05-04 00:57 | 41.49755 | -70.49249 | 1491 ft | 75 kts | 233° |
| 2026-05-04 00:57 | 41.49380 | -70.49671 | 1511 ft | 68 kts | 235° |
| 2026-05-04 00:58 | 41.49027 | -70.50071 | 1514 ft | 66 kts | 234° |
| 2026-05-04 00:58 | 41.48685 | -70.50463 | 1514 ft | 64 kts | 234° |
| 2026-05-04 00:58 | 41.48344 | -70.50851 | 1513 ft | 65 kts | 235° |
| 2026-05-04 00:58 | 41.48001 | -70.51247 | 1516 ft | 66 kts | 235° |
| 2026-05-04 00:59 | 41.47651 | -70.51649 | 1519 ft | 66 kts | 235° |
| 2026-05-04 00:59 | 41.47299 | -70.52050 | 1518 ft | 66 kts | 236° |
| 2026-05-04 00:59 | 41.46948 | -70.52452 | 1521 ft | 66 kts | 234° |
| 2026-05-04 00:59 | 41.46598 | -70.52850 | 1519 ft | 66 kts | 234° |
| 2026-05-04 01:00 | 41.46249 | -70.53250 | 1519 ft | 67 kts | 235° |
| 2026-05-04 01:00 | 41.45877 | -70.53675 | 1530 ft | 72 kts | 234° |
| 2026-05-04 01:00 | 41.45494 | -70.54113 | 1526 ft | 74 kts | 234° |
| 2026-05-04 01:00 | 41.45106 | -70.54560 | 1482 ft | 73 kts | 236° |
| 2026-05-04 01:01 | 41.44721 | -70.55002 | 1395 ft | 74 kts | 234° |
| 2026-05-04 01:01 | 41.44326 | -70.55457 | 1307 ft | 75 kts | 233° |
| 2026-05-04 01:01 | 41.43943 | -70.55889 | 1193 ft | 68 kts | 233° |
| 2026-05-04 01:01 | 41.43591 | -70.56293 | 1095 ft | 66 kts | 234° |
| 2026-05-04 01:02 | 41.43240 | -70.56694 | 995 ft | 66 kts | 231° |
| 2026-05-04 01:02 | 41.42888 | -70.57092 | 904 ft | 66 kts | 231° |
| 2026-05-04 01:02 | 41.42540 | -70.57494 | 815 ft | 68 kts | 228° |
| 2026-05-04 01:02 | 41.42183 | -70.57907 | 720 ft | 67 kts | 231° |
| 2026-05-04 01:03 | 41.41822 | -70.58306 | 639 ft | 67 kts | 225° |
| 2026-05-04 01:03 | 41.41454 | -70.58727 | 546 ft | 74 kts | 227° |
| 2026-05-04 01:03 | 41.41065 | -70.59176 | 446 ft | 74 kts | 226° |
| 2026-05-04 01:03 | 41.40667 | -70.59635 | 336 ft | 76 kts | 227° |
| 2026-05-04 01:04 | 41.40252 | -70.60082 | 214 ft | 77 kts | 224° |
| 2026-05-04 01:04 | 41.39864 | -70.60548 | 122 ft | 74 kts | 225° |
| 2026-05-04 01:04 | 41.39507 | -70.60970 | 68 ft | 59 kts | 227° |
| 2026-05-04 01:04 | 41.39285 | -70.61200 | 62 ft | 21 kts | 154° |
| 2026-05-04 01:05 | 41.39261 | -70.61165 | 66 ft | 4 kts | 129° |
| 2026-05-04 01:05 | 41.39224 | -70.61122 | 65 ft | 6 kts | 189° |
| 2026-05-04 01:05 | 41.39165 | -70.61172 | 65 ft | 11 kts | 221° |
| 2026-05-04 01:05 | 41.39073 | -70.61279 | 62 ft | 24 kts | 220° |
| 2026-05-04 01:06 | 41.38948 | -70.61425 | 60 ft | 17 kts | 215° |
| 2026-05-04 01:06 | 41.38837 | -70.61540 | 62 ft | 26 kts | 214° |
| 2026-05-04 01:06 | 41.38717 | -70.61687 | 60 ft | 13 kts | 215° |
| 2026-05-04 01:06 | 41.38624 | -70.61732 | 62 ft | 18 kts | 204° |
| 2026-05-04 01:07 | 41.38609 | -70.61816 | 59 ft | 4 kts | 92° |
| 2026-05-04 01:07 | 41.38657 | -70.61753 | 60 ft | 17 kts | 39° |
| 2026-05-04 01:07 | 41.38773 | -70.61622 | 60 ft | 27 kts | 42° |
| 2026-05-04 01:07 | 41.38807 | -70.61501 | 64 ft | 11 kts | 128° |
| 2026-05-04 01:08 | 41.38764 | -70.61460 | 59 ft | 5 kts | 204° |
| 2026-05-04 01:08 | 41.38759 | -70.61493 | 63 ft | 5 kts | 311° |
| 2026-05-04 01:08 | 41.38760 | -70.61494 | 63 ft | 0 kts | 314° |